sensor_id;sensor_type;location;lat;lon;timestamp;P1;durP1;ratioP1;P2;durP2;ratioP2
10248;SDS011;5169;50.560;9.714;2023-03-26T00:02:16;4.53;;;1.30;;
10248;SDS011;5169;50.560;9.714;2023-03-26T00:04:41;2.77;;;1.03;;
10248;SDS011;5169;50.560;9.714;2023-03-26T00:07:10;4.63;;;1.20;;
10248;SDS011;5169;50.560;9.714;2023-03-26T00:09:39;6.23;;;1.30;;
10248;SDS011;5169;50.560;9.714;2023-03-26T00:12:04;4.40;;;1.40;;
10248;SDS011;5169;50.560;9.714;2023-03-26T00:14:32;4.50;;;1.37;;
10248;SDS011;5169;50.560;9.714;2023-03-26T00:16:59;5.63;;;1.87;;
10248;SDS011;5169;50.560;9.714;2023-03-26T00:19:25;3.60;;;1.40;;
10248;SDS011;5169;50.560;9.714;2023-03-26T00:21:51;5.17;;;1.37;;
10248;SDS011;5169;50.560;9.714;2023-03-26T00:24:20;3.03;;;1.40;;
10248;SDS011;5169;50.560;9.714;2023-03-26T00:26:53;5.30;;;1.40;;
10248;SDS011;5169;50.560;9.714;2023-03-26T00:29:19;3.30;;;1.20;;
10248;SDS011;5169;50.560;9.714;2023-03-26T00:31:44;5.97;;;1.23;;
10248;SDS011;5169;50.560;9.714;2023-03-26T00:34:10;3.60;;;1.37;;
10248;SDS011;5169;50.560;9.714;2023-03-26T00:36:35;5.00;;;1.60;;
10248;SDS011;5169;50.560;9.714;2023-03-26T00:39:06;3.70;;;1.30;;
10248;SDS011;5169;50.560;9.714;2023-03-26T00:41:34;4.47;;;1.30;;
10248;SDS011;5169;50.560;9.714;2023-03-26T00:44:09;5.77;;;1.37;;
10248;SDS011;5169;50.560;9.714;2023-03-26T00:46:35;4.63;;;1.20;;
10248;SDS011;5169;50.560;9.714;2023-03-26T00:49:00;7.63;;;1.23;;
10248;SDS011;5169;50.560;9.714;2023-03-26T00:51:30;4.97;;;1.40;;
10248;SDS011;5169;50.560;9.714;2023-03-26T00:53:58;3.47;;;1.20;;
10248;SDS011;5169;50.560;9.714;2023-03-26T00:56:23;3.90;;;1.43;;
10248;SDS011;5169;50.560;9.714;2023-03-26T00:58:49;2.83;;;1.00;;
10248;SDS011;5169;50.560;9.714;2023-03-26T01:01:18;3.50;;;1.10;;
10248;SDS011;5169;50.560;9.714;2023-03-26T01:03:51;3.63;;;1.17;;
10248;SDS011;5169;50.560;9.714;2023-03-26T01:06:29;3.10;;;1.17;;
10248;SDS011;5169;50.560;9.714;2023-03-26T01:08:57;3.93;;;1.40;;
10248;SDS011;5169;50.560;9.714;2023-03-26T01:11:31;5.43;;;1.50;;
10248;SDS011;5169;50.560;9.714;2023-03-26T01:14:04;5.20;;;1.53;;
10248;SDS011;5169;50.560;9.714;2023-03-26T01:16:35;6.73;;;1.40;;
10248;SDS011;5169;50.560;9.714;2023-03-26T01:19:11;4.53;;;1.20;;
10248;SDS011;5169;50.560;9.714;2023-03-26T01:21:57;4.73;;;1.53;;
10248;SDS011;5169;50.560;9.714;2023-03-26T01:24:24;4.10;;;1.40;;
10248;SDS011;5169;50.560;9.714;2023-03-26T01:29:46;5.87;;;1.90;;
10248;SDS011;5169;50.560;9.714;2023-03-26T01:39:57;6.77;;;1.60;;
10248;SDS011;5169;50.560;9.714;2023-03-26T01:42:45;3.33;;;1.60;;
10248;SDS011;5169;50.560;9.714;2023-03-26T01:45:23;4.20;;;1.70;;
10248;SDS011;5169;50.560;9.714;2023-03-26T01:47:55;6.43;;;1.70;;
10248;SDS011;5169;50.560;9.714;2023-03-26T01:50:21;6.27;;;1.40;;
10248;SDS011;5169;50.560;9.714;2023-03-26T01:52:52;8.50;;;1.93;;
10248;SDS011;5169;50.560;9.714;2023-03-26T01:55:24;5.87;;;1.30;;
10248;SDS011;5169;50.560;9.714;2023-03-26T01:58:26;5.30;;;1.80;;
10248;SDS011;5169;50.560;9.714;2023-03-26T02:03:31;6.27;;;1.63;;
10248;SDS011;5169;50.560;9.714;2023-03-26T02:08:41;5.57;;;1.60;;
10248;SDS011;5169;50.560;9.714;2023-03-26T02:11:13;4.77;;;1.60;;
10248;SDS011;5169;50.560;9.714;2023-03-26T02:13:40;7.50;;;1.77;;
10248;SDS011;5169;50.560;9.714;2023-03-26T02:16:09;5.07;;;1.53;;
10248;SDS011;5169;50.560;9.714;2023-03-26T02:18:38;6.47;;;1.60;;
10248;SDS011;5169;50.560;9.714;2023-03-26T02:21:05;5.40;;;1.70;;
10248;SDS011;5169;50.560;9.714;2023-03-26T02:23:39;4.13;;;1.87;;
10248;SDS011;5169;50.560;9.714;2023-03-26T02:26:12;7.67;;;1.80;;
10248;SDS011;5169;50.560;9.714;2023-03-26T02:28:42;5.80;;;1.87;;
10248;SDS011;5169;50.560;9.714;2023-03-26T02:31:07;8.17;;;1.90;;
10248;SDS011;5169;50.560;9.714;2023-03-26T02:33:37;7.50;;;1.87;;
10248;SDS011;5169;50.560;9.714;2023-03-26T02:36:04;5.53;;;2.03;;
10248;SDS011;5169;50.560;9.714;2023-03-26T02:38:32;4.50;;;2.10;;
10248;SDS011;5169;50.560;9.714;2023-03-26T02:40:59;5.87;;;2.23;;
10248;SDS011;5169;50.560;9.714;2023-03-26T02:43:27;9.97;;;2.40;;
10248;SDS011;5169;50.560;9.714;2023-03-26T02:45:53;10.63;;;2.33;;
10248;SDS011;5169;50.560;9.714;2023-03-26T02:48:21;7.77;;;2.40;;
10248;SDS011;5169;50.560;9.714;2023-03-26T02:50:47;7.33;;;2.33;;
10248;SDS011;5169;50.560;9.714;2023-03-26T02:53:17;8.20;;;2.60;;
10248;SDS011;5169;50.560;9.714;2023-03-26T02:55:43;12.73;;;2.70;;
10248;SDS011;5169;50.560;9.714;2023-03-26T02:58:11;6.73;;;2.27;;
10248;SDS011;5169;50.560;9.714;2023-03-26T03:00:42;8.20;;;2.17;;
10248;SDS011;5169;50.560;9.714;2023-03-26T03:03:08;6.33;;;2.20;;
10248;SDS011;5169;50.560;9.714;2023-03-26T03:05:34;7.23;;;2.07;;
10248;SDS011;5169;50.560;9.714;2023-03-26T03:08:03;6.40;;;1.90;;
10248;SDS011;5169;50.560;9.714;2023-03-26T03:10:30;9.43;;;2.33;;
10248;SDS011;5169;50.560;9.714;2023-03-26T03:12:58;7.03;;;1.80;;
10248;SDS011;5169;50.560;9.714;2023-03-26T03:15:23;8.13;;;1.80;;
10248;SDS011;5169;50.560;9.714;2023-03-26T03:17:49;7.03;;;2.17;;
10248;SDS011;5169;50.560;9.714;2023-03-26T03:20:15;7.30;;;2.03;;
10248;SDS011;5169;50.560;9.714;2023-03-26T03:22:41;5.27;;;1.90;;
10248;SDS011;5169;50.560;9.714;2023-03-26T03:25:07;6.40;;;2.10;;
10248;SDS011;5169;50.560;9.714;2023-03-26T03:27:38;5.90;;;2.17;;
10248;SDS011;5169;50.560;9.714;2023-03-26T03:30:05;6.03;;;2.47;;
10248;SDS011;5169;50.560;9.714;2023-03-26T03:32:32;9.00;;;2.67;;
10248;SDS011;5169;50.560;9.714;2023-03-26T03:35:00;6.90;;;1.80;;
10248;SDS011;5169;50.560;9.714;2023-03-26T03:37:26;8.37;;;2.10;;
10248;SDS011;5169;50.560;9.714;2023-03-26T03:39:51;5.97;;;1.73;;
10248;SDS011;5169;50.560;9.714;2023-03-26T03:42:19;8.00;;;1.80;;
10248;SDS011;5169;50.560;9.714;2023-03-26T03:44:47;7.10;;;2.20;;
10248;SDS011;5169;50.560;9.714;2023-03-26T03:47:13;7.43;;;2.50;;
10248;SDS011;5169;50.560;9.714;2023-03-26T03:49:39;7.57;;;2.07;;
10248;SDS011;5169;50.560;9.714;2023-03-26T03:52:05;8.60;;;2.00;;
10248;SDS011;5169;50.560;9.714;2023-03-26T03:54:31;7.37;;;2.20;;
10248;SDS011;5169;50.560;9.714;2023-03-26T03:56:56;7.63;;;2.07;;
10248;SDS011;5169;50.560;9.714;2023-03-26T03:59:22;7.37;;;1.77;;
10248;SDS011;5169;50.560;9.714;2023-03-26T04:01:48;5.63;;;1.67;;
10248;SDS011;5169;50.560;9.714;2023-03-26T04:04:16;5.07;;;1.70;;
10248;SDS011;5169;50.560;9.714;2023-03-26T04:06:42;7.83;;;1.90;;
10248;SDS011;5169;50.560;9.714;2023-03-26T04:09:08;8.80;;;1.93;;
10248;SDS011;5169;50.560;9.714;2023-03-26T04:11:36;8.63;;;2.00;;
10248;SDS011;5169;50.560;9.714;2023-03-26T04:14:02;6.40;;;1.70;;
10248;SDS011;5169;50.560;9.714;2023-03-26T04:16:30;6.63;;;1.90;;
10248;SDS011;5169;50.560;9.714;2023-03-26T04:18:59;6.37;;;2.03;;
10248;SDS011;5169;50.560;9.714;2023-03-26T04:21:26;6.80;;;2.10;;
10248;SDS011;5169;50.560;9.714;2023-03-26T04:23:54;7.40;;;2.10;;
10248;SDS011;5169;50.560;9.714;2023-03-26T04:26:20;7.50;;;2.20;;
10248;SDS011;5169;50.560;9.714;2023-03-26T04:28:52;7.47;;;2.70;;
10248;SDS011;5169;50.560;9.714;2023-03-26T04:31:21;8.20;;;3.00;;
10248;SDS011;5169;50.560;9.714;2023-03-26T04:33:55;10.20;;;2.93;;
10248;SDS011;5169;50.560;9.714;2023-03-26T04:36:38;9.23;;;2.57;;
10248;SDS011;5169;50.560;9.714;2023-03-26T04:39:07;6.30;;;2.40;;
10248;SDS011;5169;50.560;9.714;2023-03-26T04:41:36;12.03;;;2.30;;
10248;SDS011;5169;50.560;9.714;2023-03-26T04:44:02;12.27;;;2.70;;
10248;SDS011;5169;50.560;9.714;2023-03-26T04:46:28;5.27;;;2.00;;
10248;SDS011;5169;50.560;9.714;2023-03-26T04:48:57;9.50;;;2.33;;
10248;SDS011;5169;50.560;9.714;2023-03-26T04:51:24;6.20;;;2.10;;
10248;SDS011;5169;50.560;9.714;2023-03-26T04:53:52;13.47;;;2.30;;
10248;SDS011;5169;50.560;9.714;2023-03-26T04:56:43;6.80;;;2.67;;
10248;SDS011;5169;50.560;9.714;2023-03-26T04:59:32;8.47;;;2.53;;
10248;SDS011;5169;50.560;9.714;2023-03-26T05:01:59;6.70;;;2.50;;
10248;SDS011;5169;50.560;9.714;2023-03-26T05:04:26;12.13;;;2.60;;
10248;SDS011;5169;50.560;9.714;2023-03-26T05:06:55;7.93;;;2.50;;
10248;SDS011;5169;50.560;9.714;2023-03-26T05:09:22;11.33;;;2.67;;
10248;SDS011;5169;50.560;9.714;2023-03-26T05:11:48;7.73;;;2.50;;
10248;SDS011;5169;50.560;9.714;2023-03-26T05:14:14;5.67;;;2.43;;
10248;SDS011;5169;50.560;9.714;2023-03-26T05:16:40;7.60;;;2.60;;
10248;SDS011;5169;50.560;9.714;2023-03-26T05:19:06;8.13;;;2.50;;
10248;SDS011;5169;50.560;9.714;2023-03-26T05:21:33;10.70;;;2.80;;
10248;SDS011;5169;50.560;9.714;2023-03-26T05:23:58;6.97;;;2.83;;
10248;SDS011;5169;50.560;9.714;2023-03-26T05:26:24;12.10;;;2.83;;
10248;SDS011;5169;50.560;9.714;2023-03-26T05:28:50;8.97;;;2.67;;
10248;SDS011;5169;50.560;9.714;2023-03-26T05:31:18;8.77;;;2.63;;
10248;SDS011;5169;50.560;9.714;2023-03-26T05:33:45;4.67;;;2.30;;
10248;SDS011;5169;50.560;9.714;2023-03-26T05:36:14;7.57;;;2.00;;
10248;SDS011;5169;50.560;9.714;2023-03-26T05:38:41;6.90;;;2.10;;
10248;SDS011;5169;50.560;9.714;2023-03-26T05:41:13;5.33;;;1.93;;
10248;SDS011;5169;50.560;9.714;2023-03-26T05:43:43;7.40;;;1.90;;
10248;SDS011;5169;50.560;9.714;2023-03-26T05:46:15;9.30;;;2.10;;
10248;SDS011;5169;50.560;9.714;2023-03-26T05:48:41;4.67;;;1.70;;
10248;SDS011;5169;50.560;9.714;2023-03-26T05:51:07;11.93;;;2.20;;
10248;SDS011;5169;50.560;9.714;2023-03-26T05:53:33;9.70;;;1.70;;
10248;SDS011;5169;50.560;9.714;2023-03-26T05:55:59;5.30;;;2.10;;
10248;SDS011;5169;50.560;9.714;2023-03-26T05:58:26;8.20;;;2.10;;
10248;SDS011;5169;50.560;9.714;2023-03-26T06:00:57;6.10;;;1.90;;
10248;SDS011;5169;50.560;9.714;2023-03-26T06:03:26;7.07;;;2.33;;
10248;SDS011;5169;50.560;9.714;2023-03-26T06:05:52;7.37;;;2.67;;
10248;SDS011;5169;50.560;9.714;2023-03-26T06:08:18;8.50;;;3.57;;
10248;SDS011;5169;50.560;9.714;2023-03-26T06:10:44;6.90;;;2.30;;
10248;SDS011;5169;50.560;9.714;2023-03-26T06:13:13;8.10;;;3.30;;
10248;SDS011;5169;50.560;9.714;2023-03-26T06:15:40;3.00;;;2.13;;
10248;SDS011;5169;50.560;9.714;2023-03-26T06:18:06;5.53;;;2.00;;
10248;SDS011;5169;50.560;9.714;2023-03-26T06:20:32;8.33;;;2.50;;
10248;SDS011;5169;50.560;9.714;2023-03-26T06:23:00;7.33;;;2.23;;
10248;SDS011;5169;50.560;9.714;2023-03-26T06:25:25;8.87;;;2.10;;
10248;SDS011;5169;50.560;9.714;2023-03-26T06:27:51;7.50;;;2.17;;
10248;SDS011;5169;50.560;9.714;2023-03-26T06:30:16;7.23;;;2.10;;
10248;SDS011;5169;50.560;9.714;2023-03-26T06:32:42;7.17;;;2.50;;
10248;SDS011;5169;50.560;9.714;2023-03-26T06:35:07;7.20;;;2.40;;
10248;SDS011;5169;50.560;9.714;2023-03-26T06:37:34;6.07;;;2.10;;
10248;SDS011;5169;50.560;9.714;2023-03-26T06:40:00;8.10;;;2.13;;
10248;SDS011;5169;50.560;9.714;2023-03-26T06:42:25;8.83;;;2.67;;
10248;SDS011;5169;50.560;9.714;2023-03-26T06:44:51;6.10;;;2.27;;
10248;SDS011;5169;50.560;9.714;2023-03-26T06:47:19;4.97;;;2.00;;
10248;SDS011;5169;50.560;9.714;2023-03-26T06:49:47;10.77;;;2.10;;
10248;SDS011;5169;50.560;9.714;2023-03-26T06:52:12;7.77;;;2.40;;
10248;SDS011;5169;50.560;9.714;2023-03-26T06:54:38;10.07;;;2.37;;
10248;SDS011;5169;50.560;9.714;2023-03-26T06:57:03;9.93;;;2.30;;
10248;SDS011;5169;50.560;9.714;2023-03-26T06:59:29;7.53;;;1.97;;
10248;SDS011;5169;50.560;9.714;2023-03-26T07:01:55;6.37;;;2.33;;
10248;SDS011;5169;50.560;9.714;2023-03-26T07:04:20;6.47;;;2.40;;
10248;SDS011;5169;50.560;9.714;2023-03-26T07:06:46;8.77;;;2.80;;
10248;SDS011;5169;50.560;9.714;2023-03-26T07:09:11;4.63;;;2.00;;
10248;SDS011;5169;50.560;9.714;2023-03-26T07:11:39;5.33;;;1.90;;
10248;SDS011;5169;50.560;9.714;2023-03-26T07:14:05;6.67;;;2.00;;
10248;SDS011;5169;50.560;9.714;2023-03-26T07:16:32;6.43;;;2.37;;
10248;SDS011;5169;50.560;9.714;2023-03-26T07:18:58;7.50;;;2.27;;
10248;SDS011;5169;50.560;9.714;2023-03-26T07:21:24;7.03;;;2.00;;
10248;SDS011;5169;50.560;9.714;2023-03-26T07:23:53;9.93;;;2.03;;
10248;SDS011;5169;50.560;9.714;2023-03-26T07:34:55;15.07;;;2.70;;
10248;SDS011;5169;50.560;9.714;2023-03-26T07:40:19;11.70;;;2.53;;
10248;SDS011;5169;50.560;9.714;2023-03-26T07:45:44;8.13;;;2.50;;
10248;SDS011;5169;50.560;9.714;2023-03-26T07:48:17;5.17;;;2.03;;
10248;SDS011;5169;50.560;9.714;2023-03-26T07:50:47;8.10;;;2.20;;
10248;SDS011;5169;50.560;9.714;2023-03-26T07:53:15;7.57;;;2.43;;
10248;SDS011;5169;50.560;9.714;2023-03-26T07:55:57;12.03;;;2.40;;
10248;SDS011;5169;50.560;9.714;2023-03-26T08:06:35;9.17;;;2.40;;
10248;SDS011;5169;50.560;9.714;2023-03-26T08:17:09;10.83;;;2.50;;
10248;SDS011;5169;50.560;9.714;2023-03-26T08:19:49;9.60;;;2.30;;
10248;SDS011;5169;50.560;9.714;2023-03-26T08:22:28;5.73;;;2.33;;
10248;SDS011;5169;50.560;9.714;2023-03-26T08:27:42;7.70;;;2.07;;
10248;SDS011;5169;50.560;9.714;2023-03-26T08:30:19;6.17;;;1.80;;
10248;SDS011;5169;50.560;9.714;2023-03-26T08:33:20;8.07;;;2.10;;
10248;SDS011;5169;50.560;9.714;2023-03-26T08:35:41;5.00;;;1.80;;
10248;SDS011;5169;50.560;9.714;2023-03-26T08:38:10;10.43;;;2.43;;
10248;SDS011;5169;50.560;9.714;2023-03-26T09:06:47;8.83;;;2.97;;
10248;SDS011;5169;50.560;9.714;2023-03-26T09:26:25;8.37;;;2.10;;
10248;SDS011;5169;50.560;9.714;2023-03-26T09:48:17;8.27;;;2.50;;
10248;SDS011;5169;50.560;9.714;2023-03-26T09:50:51;6.40;;;2.60;;
10248;SDS011;5169;50.560;9.714;2023-03-26T10:07:35;6.60;;;2.87;;
10248;SDS011;5169;50.560;9.714;2023-03-26T10:10:33;7.20;;;2.47;;
10248;SDS011;5169;50.560;9.714;2023-03-26T10:21:25;6.00;;;2.17;;
10248;SDS011;5169;50.560;9.714;2023-03-26T10:34:52;3.20;;;1.60;;
10248;SDS011;5169;50.560;9.714;2023-03-26T10:37:40;3.70;;;1.30;;
10248;SDS011;5169;50.560;9.714;2023-03-26T10:57:03;3.37;;;1.27;;
10248;SDS011;5169;50.560;9.714;2023-03-26T10:59:31;2.03;;;1.10;;
10248;SDS011;5169;50.560;9.714;2023-03-26T11:08:03;3.10;;;1.23;;
10248;SDS011;5169;50.560;9.714;2023-03-26T11:10:48;3.50;;;1.30;;
10248;SDS011;5169;50.560;9.714;2023-03-26T11:13:33;3.20;;;1.27;;
10248;SDS011;5169;50.560;9.714;2023-03-26T11:16:41;3.97;;;1.27;;
10248;SDS011;5169;50.560;9.714;2023-03-26T11:19:18;2.23;;;0.93;;
10248;SDS011;5169;50.560;9.714;2023-03-26T11:35:14;3.57;;;1.60;;
10248;SDS011;5169;50.560;9.714;2023-03-26T11:37:56;4.87;;;1.50;;
10248;SDS011;5169;50.560;9.714;2023-03-26T11:40:43;1.93;;;1.23;;
10248;SDS011;5169;50.560;9.714;2023-03-26T11:43:17;3.90;;;1.67;;
10248;SDS011;5169;50.560;9.714;2023-03-26T11:45:48;3.27;;;1.30;;
10248;SDS011;5169;50.560;9.714;2023-03-26T11:48:22;3.97;;;1.50;;
10248;SDS011;5169;50.560;9.714;2023-03-26T11:50:56;2.77;;;1.73;;
10248;SDS011;5169;50.560;9.714;2023-03-26T11:53:30;3.43;;;1.30;;
10248;SDS011;5169;50.560;9.714;2023-03-26T11:58:42;2.97;;;1.30;;
10248;SDS011;5169;50.560;9.714;2023-03-26T12:01:49;3.50;;;1.40;;
10248;SDS011;5169;50.560;9.714;2023-03-26T12:04:24;4.27;;;1.23;;
10248;SDS011;5169;50.560;9.714;2023-03-26T12:06:55;4.37;;;1.53;;
10248;SDS011;5169;50.560;9.714;2023-03-26T12:09:30;3.63;;;1.30;;
10248;SDS011;5169;50.560;9.714;2023-03-26T12:11:59;3.77;;;1.20;;
10248;SDS011;5169;50.560;9.714;2023-03-26T12:14:27;2.43;;;1.30;;
10248;SDS011;5169;50.560;9.714;2023-03-26T12:19:44;2.50;;;1.30;;
10248;SDS011;5169;50.560;9.714;2023-03-26T12:22:25;4.67;;;1.30;;
10248;SDS011;5169;50.560;9.714;2023-03-26T12:25:28;2.20;;;1.20;;
10248;SDS011;5169;50.560;9.714;2023-03-26T12:27:49;4.00;;;1.30;;
10248;SDS011;5169;50.560;9.714;2023-03-26T12:30:35;3.47;;;1.63;;
10248;SDS011;5169;50.560;9.714;2023-03-26T12:33:04;3.17;;;1.30;;
10248;SDS011;5169;50.560;9.714;2023-03-26T12:35:33;1.60;;;1.27;;
10248;SDS011;5169;50.560;9.714;2023-03-26T12:38:13;2.77;;;1.10;;
10248;SDS011;5169;50.560;9.714;2023-03-26T12:41:02;3.67;;;1.40;;
10248;SDS011;5169;50.560;9.714;2023-03-26T12:48:50;3.37;;;1.93;;
10248;SDS011;5169;50.560;9.714;2023-03-26T13:02:08;2.53;;;1.40;;
10248;SDS011;5169;50.560;9.714;2023-03-26T13:07:22;2.77;;;1.50;;
10248;SDS011;5169;50.560;9.714;2023-03-26T13:10:18;3.17;;;1.57;;
10248;SDS011;5169;50.560;9.714;2023-03-26T13:16:03;3.40;;;1.30;;
10248;SDS011;5169;50.560;9.714;2023-03-26T13:19:07;2.37;;;1.20;;
10248;SDS011;5169;50.560;9.714;2023-03-26T13:35:41;3.77;;;2.23;;
10248;SDS011;5169;50.560;9.714;2023-03-26T13:38:15;1.90;;;1.30;;
10248;SDS011;5169;50.560;9.714;2023-03-26T13:46:11;2.70;;;1.37;;
10248;SDS011;5169;50.560;9.714;2023-03-26T13:48:53;3.40;;;1.50;;
10248;SDS011;5169;50.560;9.714;2023-03-26T13:51:33;3.63;;;1.53;;
10248;SDS011;5169;50.560;9.714;2023-03-26T13:56:49;4.67;;;2.33;;
10248;SDS011;5169;50.560;9.714;2023-03-26T14:02:09;2.00;;;0.90;;
10248;SDS011;5169;50.560;9.714;2023-03-26T14:04:43;2.40;;;1.20;;
10248;SDS011;5169;50.560;9.714;2023-03-26T14:10:09;3.00;;;1.20;;
10248;SDS011;5169;50.560;9.714;2023-03-26T14:23:57;2.73;;;1.33;;
10248;SDS011;5169;50.560;9.714;2023-03-26T14:27:00;2.23;;;1.10;;
10248;SDS011;5169;50.560;9.714;2023-03-26T14:35:30;3.43;;;1.63;;
10248;SDS011;5169;50.560;9.714;2023-03-26T14:49:09;2.90;;;1.67;;
10248;SDS011;5169;50.560;9.714;2023-03-26T14:54:40;3.10;;;1.47;;
10248;SDS011;5169;50.560;9.714;2023-03-26T15:05:37;2.80;;;1.13;;
10248;SDS011;5169;50.560;9.714;2023-03-26T15:22:01;2.03;;;1.10;;
10248;SDS011;5169;50.560;9.714;2023-03-26T15:31:07;1.67;;;1.00;;
10248;SDS011;5169;50.560;9.714;2023-03-26T15:53:33;0.83;;;0.60;;
10248;SDS011;5169;50.560;9.714;2023-03-26T15:59:11;1.27;;;0.50;;
10248;SDS011;5169;50.560;9.714;2023-03-26T16:06:48;0.90;;;0.80;;
10248;SDS011;5169;50.560;9.714;2023-03-26T16:12:28;2.90;;;0.90;;
10248;SDS011;5169;50.560;9.714;2023-03-26T16:23:31;1.63;;;0.60;;
10248;SDS011;5169;50.560;9.714;2023-03-26T16:33:49;2.93;;;1.33;;
10248;SDS011;5169;50.560;9.714;2023-03-26T16:41:29;5.50;;;2.30;;
10248;SDS011;5169;50.560;9.714;2023-03-26T16:44:04;1.70;;;1.20;;
10248;SDS011;5169;50.560;9.714;2023-03-26T16:49:44;1.47;;;1.37;;
10248;SDS011;5169;50.560;9.714;2023-03-26T17:06:24;3.23;;;2.40;;
10248;SDS011;5169;50.560;9.714;2023-03-26T17:15:22;2.67;;;1.80;;
10248;SDS011;5169;50.560;9.714;2023-03-26T17:18:26;3.27;;;1.73;;
10248;SDS011;5169;50.560;9.714;2023-03-26T17:26:22;1.93;;;1.10;;
10248;SDS011;5169;50.560;9.714;2023-03-26T17:31:48;3.00;;;1.50;;
10248;SDS011;5169;50.560;9.714;2023-03-26T17:37:24;2.90;;;1.50;;
10248;SDS011;5169;50.560;9.714;2023-03-26T17:42:36;2.87;;;1.80;;
10248;SDS011;5169;50.560;9.714;2023-03-26T17:45:06;3.87;;;1.47;;
10248;SDS011;5169;50.560;9.714;2023-03-26T17:47:57;2.50;;;1.43;;
10248;SDS011;5169;50.560;9.714;2023-03-26T17:50:31;1.53;;;1.27;;
10248;SDS011;5169;50.560;9.714;2023-03-26T17:53:39;1.10;;;1.00;;
10248;SDS011;5169;50.560;9.714;2023-03-26T17:56:00;1.67;;;1.30;;
10248;SDS011;5169;50.560;9.714;2023-03-26T17:58:34;4.83;;;2.27;;
10248;SDS011;5169;50.560;9.714;2023-03-26T18:03:47;2.80;;;1.63;;
10248;SDS011;5169;50.560;9.714;2023-03-26T18:09:35;2.67;;;1.60;;
10248;SDS011;5169;50.560;9.714;2023-03-26T18:17:14;1.93;;;1.40;;
10248;SDS011;5169;50.560;9.714;2023-03-26T18:19:49;2.03;;;1.80;;
10248;SDS011;5169;50.560;9.714;2023-03-26T18:22:24;1.73;;;1.60;;
10248;SDS011;5169;50.560;9.714;2023-03-26T18:24:53;1.60;;;1.47;;
10248;SDS011;5169;50.560;9.714;2023-03-26T18:27:35;1.87;;;1.20;;
10248;SDS011;5169;50.560;9.714;2023-03-26T18:32:45;1.97;;;1.30;;
10248;SDS011;5169;50.560;9.714;2023-03-26T18:35:21;1.70;;;1.00;;
10248;SDS011;5169;50.560;9.714;2023-03-26T18:37:48;1.60;;;1.10;;
10248;SDS011;5169;50.560;9.714;2023-03-26T18:40:20;1.87;;;1.30;;
10248;SDS011;5169;50.560;9.714;2023-03-26T18:42:48;1.70;;;1.20;;
10248;SDS011;5169;50.560;9.714;2023-03-26T18:47:57;1.50;;;1.40;;
10248;SDS011;5169;50.560;9.714;2023-03-26T18:50:31;1.90;;;1.57;;
10248;SDS011;5169;50.560;9.714;2023-03-26T18:53:00;1.50;;;1.40;;
10248;SDS011;5169;50.560;9.714;2023-03-26T18:55:28;2.30;;;1.80;;
10248;SDS011;5169;50.560;9.714;2023-03-26T18:57:56;3.53;;;1.90;;
10248;SDS011;5169;50.560;9.714;2023-03-26T19:00:23;4.57;;;1.90;;
10248;SDS011;5169;50.560;9.714;2023-03-26T19:03:09;1.50;;;1.20;;
10248;SDS011;5169;50.560;9.714;2023-03-26T19:05:38;1.03;;;0.87;;
10248;SDS011;5169;50.560;9.714;2023-03-26T19:08:04;1.30;;;1.00;;
10248;SDS011;5169;50.560;9.714;2023-03-26T19:10:31;0.90;;;0.73;;
10248;SDS011;5169;50.560;9.714;2023-03-26T19:12:58;1.00;;;0.90;;
10248;SDS011;5169;50.560;9.714;2023-03-26T19:15:31;2.13;;;1.80;;
10248;SDS011;5169;50.560;9.714;2023-03-26T19:17:59;2.40;;;2.00;;
10248;SDS011;5169;50.560;9.714;2023-03-26T19:20:44;1.77;;;1.20;;
10248;SDS011;5169;50.560;9.714;2023-03-26T19:23:15;0.90;;;0.77;;
10248;SDS011;5169;50.560;9.714;2023-03-26T19:25:50;0.67;;;0.67;;
10248;SDS011;5169;50.560;9.714;2023-03-26T19:33:42;1.57;;;1.10;;
10248;SDS011;5169;50.560;9.714;2023-03-26T19:41:23;0.73;;;0.70;;
10248;SDS011;5169;50.560;9.714;2023-03-26T19:43:58;0.60;;;0.60;;
10248;SDS011;5169;50.560;9.714;2023-03-26T19:46:26;0.63;;;0.63;;
10248;SDS011;5169;50.560;9.714;2023-03-26T19:48:56;0.60;;;0.60;;
10248;SDS011;5169;50.560;9.714;2023-03-26T19:53:56;0.60;;;0.60;;
10248;SDS011;5169;50.560;9.714;2023-03-26T19:56:27;1.27;;;0.60;;
10248;SDS011;5169;50.560;9.714;2023-03-26T19:58:53;0.67;;;0.67;;
10248;SDS011;5169;50.560;9.714;2023-03-26T20:01:20;1.37;;;0.80;;
10248;SDS011;5169;50.560;9.714;2023-03-26T20:03:50;0.70;;;0.67;;
10248;SDS011;5169;50.560;9.714;2023-03-26T20:06:21;1.20;;;0.90;;
10248;SDS011;5169;50.560;9.714;2023-03-26T20:08:52;1.10;;;0.90;;
10248;SDS011;5169;50.560;9.714;2023-03-26T20:11:22;1.13;;;0.80;;
10248;SDS011;5169;50.560;9.714;2023-03-26T20:13:57;0.80;;;0.70;;
10248;SDS011;5169;50.560;9.714;2023-03-26T20:16:25;1.13;;;1.10;;
10248;SDS011;5169;50.560;9.714;2023-03-26T20:18:58;1.47;;;0.40;;
10248;SDS011;5169;50.560;9.714;2023-03-26T20:21:27;0.80;;;0.60;;
10248;SDS011;5169;50.560;9.714;2023-03-26T20:23:58;1.43;;;1.10;;
10248;SDS011;5169;50.560;9.714;2023-03-26T20:26:35;0.73;;;0.73;;
10248;SDS011;5169;50.560;9.714;2023-03-26T20:29:05;0.60;;;0.60;;
10248;SDS011;5169;50.560;9.714;2023-03-26T20:31:31;0.40;;;0.40;;
10248;SDS011;5169;50.560;9.714;2023-03-26T20:33:56;0.50;;;0.50;;
10248;SDS011;5169;50.560;9.714;2023-03-26T20:36:23;0.60;;;0.60;;
10248;SDS011;5169;50.560;9.714;2023-03-26T20:38:51;1.00;;;0.80;;
10248;SDS011;5169;50.560;9.714;2023-03-26T20:41:18;0.50;;;0.50;;
10248;SDS011;5169;50.560;9.714;2023-03-26T20:43:47;0.70;;;0.60;;
10248;SDS011;5169;50.560;9.714;2023-03-26T20:46:22;0.60;;;0.50;;
10248;SDS011;5169;50.560;9.714;2023-03-26T20:48:52;0.37;;;0.37;;
10248;SDS011;5169;50.560;9.714;2023-03-26T20:51:20;0.40;;;0.40;;
10248;SDS011;5169;50.560;9.714;2023-03-26T20:53:45;1.13;;;0.50;;
10248;SDS011;5169;50.560;9.714;2023-03-26T20:56:15;0.40;;;0.40;;
10248;SDS011;5169;50.560;9.714;2023-03-26T20:58:43;0.60;;;0.50;;
10248;SDS011;5169;50.560;9.714;2023-03-26T21:01:10;0.40;;;0.40;;
10248;SDS011;5169;50.560;9.714;2023-03-26T21:03:37;0.93;;;0.50;;
10248;SDS011;5169;50.560;9.714;2023-03-26T21:06:07;0.40;;;0.40;;
10248;SDS011;5169;50.560;9.714;2023-03-26T21:08:40;0.50;;;0.30;;
10248;SDS011;5169;50.560;9.714;2023-03-26T21:16:45;0.50;;;0.50;;
10248;SDS011;5169;50.560;9.714;2023-03-26T21:19:11;0.50;;;0.50;;
10248;SDS011;5169;50.560;9.714;2023-03-26T21:21:48;0.40;;;0.40;;
10248;SDS011;5169;50.560;9.714;2023-03-26T21:29:26;0.60;;;0.60;;
10248;SDS011;5169;50.560;9.714;2023-03-26T21:31:52;0.50;;;0.50;;
10248;SDS011;5169;50.560;9.714;2023-03-26T21:34:19;1.63;;;0.50;;
10248;SDS011;5169;50.560;9.714;2023-03-26T21:36:46;0.67;;;0.60;;
10248;SDS011;5169;50.560;9.714;2023-03-26T21:39:12;1.57;;;0.80;;
10248;SDS011;5169;50.560;9.714;2023-03-26T21:41:48;0.80;;;0.60;;
10248;SDS011;5169;50.560;9.714;2023-03-26T21:44:15;1.17;;;0.53;;
10248;SDS011;5169;50.560;9.714;2023-03-26T21:46:42;0.73;;;0.50;;
10248;SDS011;5169;50.560;9.714;2023-03-26T21:49:15;0.60;;;0.60;;
10248;SDS011;5169;50.560;9.714;2023-03-26T21:51:44;0.70;;;0.60;;
10248;SDS011;5169;50.560;9.714;2023-03-26T21:54:19;0.70;;;0.70;;
10248;SDS011;5169;50.560;9.714;2023-03-26T22:00:04;0.70;;;0.50;;
10248;SDS011;5169;50.560;9.714;2023-03-26T22:05:15;0.70;;;0.67;;
10248;SDS011;5169;50.560;9.714;2023-03-26T22:10:23;2.17;;;1.10;;
10248;SDS011;5169;50.560;9.714;2023-03-26T22:12:51;1.30;;;1.20;;
10248;SDS011;5169;50.560;9.714;2023-03-26T22:15:19;2.30;;;1.40;;
10248;SDS011;5169;50.560;9.714;2023-03-26T22:17:46;2.73;;;1.40;;
10248;SDS011;5169;50.560;9.714;2023-03-26T22:20:20;1.87;;;1.40;;
10248;SDS011;5169;50.560;9.714;2023-03-26T22:22:49;4.37;;;1.50;;
10248;SDS011;5169;50.560;9.714;2023-03-26T22:25:17;2.10;;;1.50;;
10248;SDS011;5169;50.560;9.714;2023-03-26T22:27:46;2.30;;;1.50;;
10248;SDS011;5169;50.560;9.714;2023-03-26T22:30:13;3.40;;;1.50;;
10248;SDS011;5169;50.560;9.714;2023-03-26T22:32:39;2.70;;;1.37;;
10248;SDS011;5169;50.560;9.714;2023-03-26T22:35:09;2.83;;;1.60;;
10248;SDS011;5169;50.560;9.714;2023-03-26T22:37:35;2.13;;;1.30;;
10248;SDS011;5169;50.560;9.714;2023-03-26T22:40:06;2.30;;;1.13;;